Time;durP1;ratioP1;P1;durP2;ratioP2;P2;SDS_P1;SDS_P2;PMS_P1;PMS_P2;Temp;Humidity;BMP_temperature;BMP_pressure;BME280_temperature;BME280_humidity;BME280_pressure;Samples;Min_cycle;Max_cycle;Signal;HPM_P1;HPM_P2
2022/10/02 00:02:02;;;;;;;11.75;3.50;;;11.90;99.90;;;;;;5003214;28;19936;-79
2022/10/02 00:04:58;;;;;;;15.52;4.70;;;11.90;99.90;;;;;;4990676;28;20130;-78
2022/10/02 00:07:33;;;;;;;13.63;3.88;;;12.00;99.90;;;;;;4994668;28;20046;-79
2022/10/02 00:10:05;;;;;;;13.18;3.25;;;11.90;99.90;;;;;;5007668;28;20089;-79
2022/10/02 00:12:34;;;;;;;20.10;5.22;;;11.70;99.90;;;;;;4990378;28;20053;-79
2022/10/02 00:15:11;;;;;;;14.45;3.80;;;11.10;99.90;;;;;;5020621;28;20048;-79
2022/10/02 00:17:42;;;;;;;19.40;4.38;;;11.80;99.90;;;;;;5020039;28;20048;-79
2022/10/02 00:20:17;;;;;;;14.40;4.13;;;11.30;99.90;;;;;;4987988;28;20053;-79
2022/10/02 00:23:09;;;;;;;15.98;3.50;;;12.10;99.90;;;;;;4992502;28;20530;-79
2022/10/02 00:25:43;;;;;;;16.67;3.60;;;11.10;99.90;;;;;;5003658;28;20503;-79
2022/10/02 00:28:09;;;;;;;;;;;;;;;;;;5008984;28;20034;-79
2022/10/02 00:31:26;;;;;;;11.85;3.10;;;11.60;99.90;;;;;;5018139;28;19993;-79
2022/10/02 00:34:18;;;;;;;13.32;3.40;;;11.50;99.90;;;;;;4964629;28;20122;-79
2022/10/02 00:37:19;;;;;;;13.07;3.17;;;11.50;99.90;;;;;;4978311;28;20411;-79
2022/10/02 00:40:43;;;;;;;19.10;3.38;;;11.50;99.90;;;;;;5001163;22;20077;-66
2022/10/02 00:43:33;;;;;;;17.42;3.42;;;11.20;99.90;;;;;;4945984;29;20051;-64
2022/10/02 00:46:28;;;;;;;11.38;3.63;;;11.50;99.90;;;;;;5023416;28;20049;-63
2022/10/02 00:49:32;;;;;;;17.90;3.67;;;11.50;99.90;;;;;;5001161;28;20053;-64
2022/10/02 00:52:19;;;;;;;18.75;3.70;;;11.70;99.90;;;;;;4987159;28;20132;-63
2022/10/02 00:55:06;;;;;;;13.90;3.65;;;11.20;99.90;;;;;;5030237;28;20423;-63
2022/10/02 00:57:56;;;;;;;12.07;3.60;;;11.60;99.90;;;;;;5002355;28;20056;-64
2022/10/02 01:00:22;;;;;;;18.00;4.07;;;11.50;99.90;;;;;;5030326;28;20091;-64
2022/10/02 01:03:14;;;;;;;20.63;4.75;;;11.50;99.90;;;;;;5025964;28;20042;-67
2022/10/02 01:05:39;;;;;;;18.70;3.78;;;11.40;99.90;;;;;;5022132;28;20072;-64
2022/10/02 01:08:06;;;;;;;15.85;3.80;;;11.00;99.90;;;;;;5026433;28;20065;-64
2022/10/02 01:10:33;;;;;;;17.30;3.95;;;11.30;99.90;;;;;;5024569;28;20042;-63
2022/10/02 01:12:59;;;;;;;16.13;3.92;;;11.60;99.90;;;;;;5010971;28;20453;-63
2022/10/02 01:15:35;;;;;;;13.25;3.45;;;10.90;99.90;;;;;;5008161;28;20042;-63
2022/10/02 01:18:01;;;;;;;13.77;3.40;;;10.90;99.90;;;;;;5014955;28;20436;-64
2022/10/02 01:20:40;;;;;;;12.90;3.95;;;11.10;99.90;;;;;;5027765;28;20048;-64
2022/10/02 01:23:06;;;;;;;17.92;3.90;;;11.20;99.90;;;;;;5000040;28;20533;-64
2022/10/02 01:25:31;;;;;;;20.67;5.00;;;11.20;1.00;;;;;;5026852;28;20057;-63
2022/10/02 01:27:57;;;;;;;13.70;4.13;;;11.00;1.00;;;;;;5024432;28;20109;-64
2022/10/02 01:30:23;;;;;;;17.48;4.28;;;12.00;1.00;;;;;;5028739;28;20112;-64
2022/10/02 01:32:56;;;;;;;21.33;4.20;;;11.50;1.00;;;;;;5023877;28;20037;-64
2022/10/02 01:35:26;;;;;;;15.10;3.97;;;11.40;99.90;;;;;;5025667;28;20061;-64
2022/10/02 01:37:54;;;;;;;12.40;3.97;;;12.00;1.00;;;;;;5024342;28;20144;-65
2022/10/02 01:40:34;;;;;;;11.70;3.45;;;11.10;1.00;;;;;;5025763;28;20129;-64
2022/10/02 01:43:03;;;;;;;16.05;4.25;;;11.10;1.00;;;;;;5026527;28;20046;-64
2022/10/02 01:45:49;;;;;;;15.10;3.90;;;11.50;1.00;;;;;;5021001;28;20038;-64
2022/10/02 01:48:39;;;;;;;19.73;4.50;;;11.40;1.00;;;;;;5026542;28;20072;-64
2022/10/02 01:51:20;;;;;;;13.50;3.92;;;11.60;1.00;;;;;;5018535;28;20069;-64
2022/10/02 01:54:03;;;;;;;17.98;4.53;;;11.50;99.90;;;;;;5026583;28;20423;-64
2022/10/02 01:56:38;;;;;;;17.38;4.13;;;11.00;1.00;;;;;;5025284;28;20452;-64
2022/10/02 01:59:15;;;;;;;18.48;3.88;;;10.80;1.00;;;;;;5028094;28;20029;-64
2022/10/02 02:02:09;;;;;;;18.88;3.78;;;11.40;1.00;;;;;;5025031;28;20041;-64
2022/10/02 02:04:51;;;;;;;19.45;4.38;;;11.60;1.00;;;;;;5026603;28;20443;-65
2022/10/02 02:07:34;;;;;;;20.55;3.67;;;11.20;1.00;;;;;;5003553;28;20046;-64
2022/10/02 02:10:27;;;;;;;16.80;3.88;;;11.10;1.00;;;;;;5024126;28;20038;-65
2022/10/02 02:13:01;;;;;;;20.13;4.45;;;10.90;1.00;;;;;;5009343;28;20106;-64
2022/10/02 02:15:52;;;;;;;13.77;3.50;;;11.10;1.00;;;;;;5028233;28;20052;-64
2022/10/02 02:18:23;;;;;;;14.65;3.50;;;11.40;1.00;;;;;;5016101;28;20118;-64
2022/10/02 02:20:52;;;;;;;16.23;3.40;;;11.10;1.00;;;;;;5003972;28;20451;-63
2022/10/02 02:23:31;;;;;;;15.27;4.72;;;11.60;1.00;;;;;;5025452;28;20495;-63
2022/10/02 02:26:00;;;;;;;15.30;3.60;;;;;;;;;;5022988;28;20061;-64
2022/10/02 02:28:27;;;;;;;15.98;3.60;;;;;;;;;;5026455;28;20053;-64
2022/10/02 02:30:54;;;;;;;13.63;3.20;;;11.30;1.00;;;;;;5024586;28;20033;-65
2022/10/02 02:33:47;;;;;;;14.55;3.10;;;11.90;1.00;;;;;;5010675;28;20041;-65
2022/10/02 02:36:17;;;;;;;13.77;3.45;;;11.80;1.00;;;;;;5019770;28;20029;-64
2022/10/02 02:38:54;;;;;;;10.02;2.88;;;12.40;1.00;;;;;;5025696;28;20049;-65
2022/10/02 02:41:26;;;;;;;15.90;3.08;;;12.20;99.90;;;;;;5020541;28;20045;-65
2022/10/02 02:43:58;;;;;;;15.80;3.17;;;11.90;99.90;;;;;;5025067;28;20060;-66
2022/10/02 02:47:02;;;;;;;10.85;3.28;;;12.30;99.90;;;;;;5021576;28;20048;-65
2022/10/02 02:49:24;;;;;;;15.73;2.78;;;12.00;99.90;;;;;;5021679;28;20052;-65
2022/10/02 02:51:51;;;;;;;12.50;2.60;;;;;;;;;;5022686;28;20123;-66
2022/10/02 02:54:28;;;;;;;19.42;3.13;;;;;;;;;;5025756;28;20376;-65
2022/10/02 02:56:56;;;;;;;14.38;2.97;;;12.50;99.90;;;;;;5006137;28;20034;-65
2022/10/02 02:59:25;;;;;;;10.90;2.80;;;12.30;99.90;;;;;;5024485;28;20423;-65
2022/10/02 03:01:50;;;;;;;16.45;3.30;;;12.40;99.90;;;;;;5022744;28;20033;-66
2022/10/02 03:04:16;;;;;;;13.73;2.50;;;12.30;99.90;;;;;;5023604;28;20044;-66
2022/10/02 03:06:48;;;;;;;13.82;3.53;;;12.50;99.90;;;;;;5025145;28;20037;-66
2022/10/02 03:09:19;;;;;;;17.33;3.17;;;12.40;99.90;;;;;;5006096;28;20037;-65
2022/10/02 03:12:12;;;;;;;12.52;2.88;;;12.40;99.90;;;;;;5026631;28;20483;-65
2022/10/02 03:15:11;;;;;;;14.02;3.42;;;12.20;99.90;;;;;;5027853;28;20530;-65
2022/10/02 03:18:09;;;;;;;12.02;2.65;;;12.50;99.90;;;;;;5002471;28;20088;-65
2022/10/02 03:20:51;;;;;;;10.50;2.65;;;;;;;;;;5020193;28;20065;-65
2022/10/02 03:23:33;;;;;;;9.65;2.60;;;12.50;1.00;;;;;;5025822;28;20087;-65
2022/10/02 03:26:10;;;;;;;18.55;2.78;;;12.70;1.00;;;;;;5022408;28;20120;-66
2022/10/02 03:28:42;;;;;;;16.42;2.85;;;12.70;1.00;;;;;;5025901;28;20684;-66
2022/10/02 03:31:10;;;;;;;15.43;3.10;;;13.40;1.00;;;;;;5024210;28;20083;-65
2022/10/02 03:33:37;;;;;;;11.85;2.40;;;12.30;1.00;;;;;;5027344;28;20136;-65
2022/10/02 03:36:04;;;;;;;13.57;2.78;;;12.60;1.00;;;;;;5020794;28;20040;-65
2022/10/02 03:38:31;;;;;;;14.23;4.00;;;12.30;1.00;;;;;;5024521;28;20041;-65
2022/10/02 03:40:57;;;;;;;15.23;3.47;;;12.70;99.90;;;;;;5023027;28;20072;-64
2022/10/02 03:43:26;;;;;;;13.20;2.90;;;12.40;1.00;;;;;;5021159;28;20069;-65
2022/10/02 03:45:52;;;;;;;12.50;2.85;;;12.80;1.00;;;;;;5022349;28;20042;-65
2022/10/02 03:48:18;;;;;;;12.75;3.28;;;12.70;1.00;;;;;;5024627;28;20376;-65
2022/10/02 03:50:44;;;;;;;15.75;3.03;;;12.60;99.90;;;;;;5021900;28;20033;-66
2022/10/02 03:53:20;;;;;;;14.88;3.55;;;12.50;1.00;;;;;;5027837;28;20546;-65
2022/10/02 03:55:52;;;;;;;11.90;2.80;;;12.50;1.00;;;;;;5022616;28;20077;-66
2022/10/02 03:58:18;;;;;;;14.95;2.78;;;12.50;1.00;;;;;;5010191;28;20045;-65
2022/10/02 04:01:14;;;;;;;15.38;3.25;;;12.80;1.00;;;;;;5023474;28;20078;-66
2022/10/02 04:03:49;;;;;;;16.05;2.60;;;12.40;1.00;;;;;;5020430;28;20070;-65
2022/10/02 04:06:17;;;;;;;;;;;13.40;1.00;;;;;;5025631;28;20033;-66
2022/10/02 04:08:51;;;;;;;15.65;3.33;;;12.70;1.00;;;;;;5021601;28;19918;-65
2022/10/02 04:11:34;;;;;;;11.50;2.97;;;12.40;1.00;;;;;;5026863;28;20033;-66
2022/10/02 04:14:36;;;;;;;17.85;3.65;;;12.50;99.90;;;;;;5027556;28;20109;-66
2022/10/02 04:17:08;;;;;;;20.20;2.92;;;12.30;99.90;;;;;;5028994;28;20673;-66
2022/10/02 04:19:58;;;;;;;18.17;3.67;;;12.20;99.90;;;;;;5023658;28;20122;-66
2022/10/02 04:22:35;;;;;;;10.80;3.30;;;12.20;99.90;;;;;;5028010;28;20045;-66
2022/10/02 04:25:13;;;;;;;15.52;3.15;;;12.70;99.90;;;;;;5012848;28;20033;-65
2022/10/02 04:27:43;;;;;;;13.70;2.63;;;12.40;99.90;;;;;;5028482;28;20116;-65
2022/10/02 04:30:19;;;;;;;11.90;3.00;;;12.40;99.90;;;;;;5009771;28;20042;-65
2022/10/02 04:32:44;;;;;;;16.10;2.80;;;12.60;99.90;;;;;;5030156;28;20033;-65
2022/10/02 04:35:16;;;;;;;19.73;3.67;;;12.70;99.90;;;;;;5026842;28;20041;-65
2022/10/02 04:38:00;;;;;;;11.45;2.70;;;12.40;99.90;;;;;;5005243;28;20140;-65
2022/10/02 04:41:03;;;;;;;14.65;3.00;;;12.10;1.00;;;;;;5028824;28;20130;-66
2022/10/02 04:43:45;;;;;;;17.60;2.80;;;12.50;99.90;;;;;;4958737;28;20066;-66
2022/10/02 04:46:30;;;;;;;15.23;3.28;;;12.70;1.00;;;;;;5007496;28;20041;-65
2022/10/02 04:49:18;;;;;;;14.50;3.58;;;12.00;99.90;;;;;;5012645;28;20479;-65
2022/10/02 04:52:04;;;;;;;14.98;2.97;;;12.40;99.90;;;;;;5024811;28;20091;-66
2022/10/02 04:54:42;;;;;;;22.10;3.17;;;12.40;99.90;;;;;;5029352;28;20112;-66
2022/10/02 04:57:23;;;;;;;12.15;3.10;;;12.20;99.90;;;;;;5026029;28;20033;-65
2022/10/02 05:00:11;;;;;;;14.95;3.45;;;12.50;99.90;;;;;;5012376;28;20041;-65
2022/10/02 05:02:52;;;;;;;19.00;3.22;;;12.20;99.90;;;;;;5020491;28;20053;-65
2022/10/02 05:05:36;;;;;;;12.27;2.70;;;12.20;99.90;;;;;;5027756;28;20073;-66
2022/10/02 05:08:29;;;;;;;19.77;4.00;;;12.30;99.90;;;;;;5018465;28;20034;-65
2022/10/02 05:11:03;;;;;;;12.90;2.70;;;12.20;99.90;;;;;;5013266;28;20145;-66
2022/10/02 05:13:48;;;;;;;13.02;2.85;;;12.10;99.90;;;;;;5026066;28;20578;-66
2022/10/02 05:16:33;;;;;;;13.05;3.67;;;12.50;99.90;;;;;;5028758;28;20408;-66
2022/10/02 05:19:03;;;;;;;21.60;3.72;;;12.20;99.90;;;;;;5023018;28;20053;-65
2022/10/02 05:21:51;;;;;;;17.52;2.97;;;12.80;99.90;;;;;;5008853;28;20698;-65
2022/10/02 05:24:34;;;;;;;12.57;3.20;;;12.40;99.90;;;;;;5022360;28;20053;-65
2022/10/02 05:27:29;;;;;;;15.63;3.40;;;12.20;99.90;;;;;;5024460;28;20038;-66
2022/10/02 05:30:13;;;;;;;11.98;2.95;;;12.70;99.90;;;;;;5010717;28;20037;-66
2022/10/02 05:33:08;;;;;;;12.67;3.33;;;12.20;99.90;;;;;;5027084;28;20072;-66
2022/10/02 05:36:11;;;;;;;10.93;2.95;;;12.00;99.90;;;;;;5006377;28;20045;-66
2022/10/02 05:39:01;;;;;;;17.98;3.22;;;12.20;99.90;;;;;;5025710;28;20095;-65
2022/10/02 05:41:32;;;;;;;17.20;3.45;;;12.00;99.90;;;;;;5017736;28;20048;-66
2022/10/02 05:45:00;;;;;;;20.60;4.40;;;11.50;1.00;;;;;;5019233;28;20410;-65
2022/10/02 05:47:29;;;;;;;17.15;3.75;;;11.60;1.00;;;;;;4942378;29;20048;-66
2022/10/02 05:50:14;;;;;;;17.75;3.22;;;11.50;1.00;;;;;;5007354;28;20399;-66
2022/10/02 05:52:52;;;;;;;16.92;3.35;;;11.50;1.00;;;;;;5028742;28;20491;-66
2022/10/02 05:55:53;;;;;;;14.85;3.47;;;11.70;1.00;;;;;;5005969;28;20046;-66
2022/10/02 05:58:32;;;;;;;16.08;3.13;;;11.70;1.00;;;;;;5025155;28;20072;-65
2022/10/02 06:01:03;;;;;;;14.25;3.83;;;11.70;1.00;;;;;;5016684;28;20041;-66
2022/10/02 06:03:42;;;;;;;16.52;3.35;;;11.70;1.00;;;;;;5022289;28;20053;-66
2022/10/02 06:06:19;;;;;;;12.95;3.63;;;11.90;1.00;;;;;;5026921;28;20037;-66
2022/10/02 06:09:00;;;;;;;16.60;3.33;;;12.20;1.00;;;;;;5013525;28;20025;-66
2022/10/02 06:11:32;;;;;;;14.75;3.63;;;12.00;1.00;;;;;;5010949;28;20045;-66
2022/10/02 06:14:23;;;;;;;16.60;3.65;;;12.10;1.00;;;;;;5009837;28;20037;-66
2022/10/02 06:16:52;;;;;;;16.02;2.97;;;;;;;;;;5016554;28;20040;-66
2022/10/02 06:19:28;;;;;;;10.75;2.60;;;;;;;;;;5006690;28;20042;-66
2022/10/02 06:22:14;;;;;;;15.70;3.63;;;12.60;99.90;;;;;;5015026;28;20037;-65
2022/10/02 06:24:51;;;;;;;12.00;3.42;;;12.60;99.90;;;;;;5008975;28;20088;-65
2022/10/02 06:27:31;;;;;;;12.70;2.95;;;12.50;1.00;;;;;;5010087;28;20120;-65
2022/10/02 06:30:01;;;;;;;18.02;5.25;;;12.20;1.00;;;;;;5007462;28;20034;-65
2022/10/02 06:32:38;;;;;;;15.07;3.67;;;12.50;1.00;;;;;;5001217;28;20492;-64
2022/10/02 06:35:15;;;;;;;11.93;2.83;;;12.30;1.00;;;;;;4996986;28;20041;-64
2022/10/02 06:38:06;;;;;;;10.70;3.10;;;12.50;2.70;;;;;;5000451;28;20408;-65
2022/10/02 06:40:44;;;;;;;11.93;2.63;;;12.40;1.00;;;;;;5094524;22;21770;-62
2022/10/02 06:43:31;;;;;;;13.43;2.90;;;12.30;1.00;;;;;;5025732;28;20042;-62
2022/10/02 06:46:21;;;;;;;10.60;2.33;;;12.10;1.00;;;;;;5031884;28;20048;-61
2022/10/02 06:48:57;;;;;;;9.23;2.65;;;12.40;19.80;;;;;;5032267;28;20045;-61
2022/10/02 06:51:36;;;;;;;11.15;2.45;;;12.40;1.00;;;;;;5022406;28;20046;-61
2022/10/02 06:54:32;;;;;;;10.68;2.83;;;12.20;1.00;;;;;;5015274;28;20032;-61
2022/10/02 06:57:02;;;;;;;7.63;2.10;;;12.50;1.00;;;;;;4988731;28;20835;-61
2022/10/02 06:59:34;;;;;;;12.02;2.30;;;12.10;1.00;;;;;;5019209;28;20116;-61
2022/10/02 07:02:11;;;;;;;10.85;2.38;;;12.60;99.90;;;;;;5026942;28;20096;-61
2022/10/02 07:05:00;;;;;;;14.05;3.47;;;12.40;99.90;;;;;;5028633;28;20462;-61
2022/10/02 07:07:50;;;;;;;16.55;2.80;;;12.40;1.00;;;;;;5037239;28;20065;-61
2022/10/02 07:10:19;;;;;;;12.18;3.13;;;12.30;1.00;;;;;;5010708;28;20088;-62
2022/10/02 07:13:07;;;;;;;14.40;2.92;;;12.30;1.00;;;;;;5032367;28;20133;-61
2022/10/02 07:15:35;;;;;;;11.85;2.75;;;12.40;1.00;;;;;;5031265;28;20116;-61
2022/10/02 07:18:41;;;;;;;11.98;2.90;;;12.50;1.00;;;;;;5027466;28;20037;-61
2022/10/02 07:21:26;;;;;;;13.15;2.75;;;12.50;1.00;;;;;;5033756;28;20351;-61
2022/10/02 07:24:17;;;;;;;11.07;2.73;;;12.40;1.00;;;;;;5038567;28;20045;-61
2022/10/02 07:26:47;;;;;;;9.52;2.33;;;12.40;1.00;;;;;;5007181;28;20284;-61
2022/10/02 07:29:36;;;;;;;18.05;3.00;;;13.10;1.00;;;;;;5033705;28;20050;-61
2022/10/02 07:32:11;;;;;;;17.63;3.00;;;12.80;1.00;;;;;;5033312;28;20041;-61
2022/10/02 07:34:43;;;;;;;10.38;2.70;;;;;;;;;;5038405;28;20102;-61
2022/10/02 07:37:24;;;;;;;13.38;3.58;;;12.90;1.00;;;;;;5031993;28;20042;-62
2022/10/02 07:40:23;;;;;;;12.40;2.60;;;12.80;1.00;;;;;;5020504;28;20112;-61
2022/10/02 07:42:57;;;;;;;15.15;3.45;;;13.40;99.90;;;;;;5015243;28;20044;-61
2022/10/02 07:45:34;;;;;;;15.20;3.80;;;13.10;99.90;;;;;;4999146;28;20068;-61
2022/10/02 07:48:29;;;;;;;15.35;3.65;;;13.30;99.90;;;;;;5020947;28;20076;-61
2022/10/02 07:54:07;;;;;;;14.57;3.55;;;;;;;;;;5017910;28;20802;-62
2022/10/02 07:56:34;;;;;;;14.90;3.40;;;13.50;99.90;;;;;;5021864;28;20088;-61
2022/10/02 07:59:10;;;;;;;12.05;3.20;;;13.30;99.90;;;;;;5028865;28;20506;-61
2022/10/02 08:01:40;;;;;;;13.30;3.40;;;13.50;99.90;;;;;;5039243;28;20054;-62
2022/10/02 08:04:17;;;;;;;14.50;3.20;;;13.70;99.90;;;;;;5025503;28;20034;-62
2022/10/02 08:06:46;;;;;;;16.58;3.25;;;13.30;99.90;;;;;;5035390;28;20128;-62
2022/10/02 08:09:20;;;;;;;14.73;2.70;;;13.10;1.00;;;;;;5034310;28;20108;-62
2022/10/02 08:12:11;;;;;;;13.73;3.33;;;13.60;1.00;;;;;;5039608;28;20033;-61
2022/10/02 08:14:40;;;;;;;15.80;3.42;;;13.70;1.00;;;;;;5039080;28;20056;-61
2022/10/02 08:17:41;;;;;;;12.38;2.80;;;13.20;1.00;;;;;;5013549;28;20041;-62
2022/10/02 08:20:32;;;;;;;15.73;3.55;;;13.60;1.00;;;;;;5007793;28;20056;-62
2022/10/02 08:23:30;;;;;;;11.90;3.63;;;;;;;;;;5035679;28;20042;-62
2022/10/02 08:26:11;;;;;;;11.85;2.83;;;13.70;1.00;;;;;;5016847;28;20099;-62
2022/10/02 08:28:48;;;;;;;13.55;3.33;;;13.60;1.00;;;;;;5034940;28;20063;-62
2022/10/02 08:31:14;;;;;;;16.73;4.05;;;13.30;1.00;;;;;;5037111;28;20061;-61
2022/10/02 08:33:41;;;;;;;16.58;3.83;;;14.00;1.00;;;;;;5032121;28;20052;-62
2022/10/02 08:36:12;;;;;;;14.13;3.42;;;14.00;99.90;;;;;;5021421;28;20041;-61
2022/10/02 08:38:41;;;;;;;10.77;3.55;;;;;;;;;;5028445;28;20030;-61
2022/10/02 08:41:31;;;;;;;11.50;3.22;;;14.30;99.90;;;;;;5036488;28;20041;-61
2022/10/02 08:44:00;;;;;;;12.43;2.55;;;14.60;99.90;;;;;;5037209;28;20240;-62
2022/10/02 08:46:43;;;;;;;13.18;3.22;;;14.40;99.90;;;;;;5043260;28;20041;-61
2022/10/02 08:49:40;;;;;;;16.90;3.17;;;14.60;99.90;;;;;;5040594;28;20029;-61
2022/10/02 08:52:08;;;;;;;13.60;3.38;;;14.30;99.90;;;;;;5037597;28;20047;-61
2022/10/02 08:54:49;;;;;;;11.55;3.08;;;;;;;;;;5039847;28;20041;-61
2022/10/02 08:57:30;;;;;;;11.63;2.97;;;14.30;99.90;;;;;;5035381;28;20198;-61
2022/10/02 09:00:20;;;;;;;13.13;3.10;;;14.90;99.90;;;;;;5037070;28;20034;-61
2022/10/02 09:03:15;;;;;;;10.57;2.50;;;14.40;99.90;;;;;;5009407;28;20042;-61
2022/10/02 09:06:08;;;;;;;13.68;3.03;;;14.70;1.00;;;;;;4984803;28;20396;-61
2022/10/02 09:09:15;;;;;;;10.63;2.33;;;14.50;99.90;;;;;;5035838;28;20111;-61
2022/10/02 09:12:26;;;;;;;17.50;3.63;;;14.90;99.90;;;;;;5034142;28;20064;-61
2022/10/02 09:15:05;;;;;;;11.48;2.75;;;14.70;99.90;;;;;;5033751;28;20073;-61
2022/10/02 09:17:41;;;;;;;15.98;3.13;;;14.40;99.90;;;;;;5037750;28;20124;-61
2022/10/02 09:20:09;;;;;;;22.80;4.13;;;14.40;99.90;;;;;;5035464;28;20083;-61
2022/10/02 09:25:36;;;;;;;10.90;2.13;;;14.40;99.90;;;;;;5014484;28;20038;-61
2022/10/02 09:28:26;;;;;;;11.13;2.85;;;14.40;99.90;;;;;;5006366;28;20507;-61
2022/10/02 09:31:13;;;;;;;12.20;3.15;;;15.10;1.00;;;;;;5007413;28;20072;-60
2022/10/02 09:33:56;;;;;;;13.57;2.83;;;15.40;74.40;;;;;;5009986;28;20463;-61
2022/10/02 09:36:49;;;;;;;13.63;3.33;;;15.00;1.00;;;;;;5007067;28;20037;-61
2022/10/02 09:40:02;;;;;;;13.02;2.40;;;15.40;99.90;;;;;;5008522;28;20158;-60
2022/10/02 09:42:47;;;;;;;12.90;3.22;;;15.90;1.00;;;;;;4926181;29;20048;-61
2022/10/02 09:45:35;;;;;;;10.18;2.47;;;15.20;89.30;;;;;;4990621;28;20053;-60
2022/10/02 09:48:09;;;;;;;11.40;2.47;;;15.40;1.00;;;;;;5007717;28;20415;-61
2022/10/02 09:50:56;;;;;;;;;;;15.30;99.90;;;;;;5009500;28;20044;-61
2022/10/02 09:53:41;;;;;;;12.93;2.60;;;;;;;;;;5006841;28;19967;-61
2022/10/02 09:56:28;;;;;;;19.45;3.78;;;14.90;1.00;;;;;;5006825;28;20036;-61
2022/10/02 09:59:32;;;;;;;12.52;2.67;;;14.90;1.00;;;;;;4988988;28;20053;-60
2022/10/02 10:01:58;;;;;;;12.73;2.67;;;14.90;32.10;;;;;;5005159;28;20045;-61
2022/10/02 10:04:45;;;;;;;11.90;3.33;;;15.50;24.20;;;;;;5007082;28;20038;-61
2022/10/02 10:07:11;;;;;;;14.38;2.97;;;;;;;;;;5006771;28;20491;-61
2022/10/02 10:10:04;;;;;;;11.63;3.25;;;15.40;1.00;;;;;;5007726;28;20298;-60
2022/10/02 10:12:30;;;;;;;12.80;3.03;;;15.20;99.90;;;;;;5007124;28;20041;-60
2022/10/02 10:15:23;;;;;;;10.77;2.42;;;15.30;99.90;;;;;;5008524;28;20492;-60
2022/10/02 10:18:35;;;;;;;13.60;3.08;;;15.90;99.90;;;;;;5008800;28;20030;-61
2022/10/02 10:21:18;;;;;;;8.85;2.72;;;15.80;99.90;;;;;;4993080;28;20046;-61
2022/10/02 10:24:08;;;;;;;17.20;2.97;;;15.90;99.90;;;;;;4991631;28;20045;-61
2022/10/02 10:26:51;;;;;;;14.45;2.50;;;15.00;99.90;;;;;;5008772;28;20507;-60
2022/10/02 10:29:23;;;;;;;13.18;3.00;;;;;;;;;;4989497;28;20045;-59
2022/10/02 10:31:49;;;;;;;10.98;2.60;;;;;;;;;;5008943;28;20068;-61
2022/10/02 10:34:27;;;;;;;10.68;2.20;;;;;;;;;;5010965;28;20119;-61
2022/10/02 10:40:00;;;;;;;12.05;2.88;;;16.10;1.00;;;;;;5008112;28;20042;-60
2022/10/02 10:42:54;;;;;;;11.82;2.70;;;16.10;99.90;;;;;;5007046;28;20404;-60
2022/10/02 10:45:26;;;;;;;14.33;2.83;;;15.10;11.70;;;;;;5006981;28;20050;-60
2022/10/02 10:48:18;;;;;;;11.00;2.50;;;15.40;93.40;;;;;;4998585;28;20117;-60
2022/10/02 10:50:53;;;;;;;11.70;2.47;;;15.30;1.00;;;;;;5010778;28;20038;-60
2022/10/02 10:53:42;;;;;;;10.63;2.13;;;15.70;1.00;;;;;;4993218;28;20500;-61
2022/10/02 10:56:20;;;;;;;10.38;2.42;;;15.30;18.60;;;;;;4999811;28;20045;-61
2022/10/02 10:59:18;;;;;;;14.20;2.65;;;15.50;38.70;;;;;;4991176;28;20151;-61
2022/10/02 11:02:13;;;;;;;12.70;2.72;;;15.20;1.00;;;;;;5010145;28;20519;-60
2022/10/02 11:05:06;;;;;;;11.57;2.45;;;15.90;1.00;;;;;;5008642;28;20152;-61
2022/10/02 11:08:11;;;;;;;11.32;3.03;;;15.80;99.90;;;;;;5007349;28;20042;-61
2022/10/02 11:11:01;;;;;;;7.75;1.85;;;15.60;99.90;;;;;;4989440;28;20042;-61
2022/10/02 11:13:42;;;;;;;10.25;2.25;;;15.90;99.90;;;;;;4992969;28;20067;-61
2022/10/02 11:16:46;;;;;;;9.52;2.55;;;16.20;1.00;;;;;;5010740;28;20210;-61
2022/10/02 11:19:13;;;;;;;12.40;2.30;;;16.30;1.00;;;;;;5009724;28;20045;-61
2022/10/02 11:21:56;;;;;;;7.03;2.10;;;;;;;;;;5009911;28;20132;-61
2022/10/02 11:24:56;;;;;;;8.85;2.65;;;16.10;80.10;;;;;;5010196;28;20084;-61
2022/10/02 11:27:46;;;;;;;12.57;2.35;;;16.20;1.00;;;;;;5006926;28;20061;-63
2022/10/02 11:30:22;;;;;;;8.77;2.20;;;16.00;99.90;;;;;;5010455;28;20038;-62
2022/10/02 11:33:09;;;;;;;10.45;2.47;;;16.30;1.00;;;;;;5002927;28;20085;-61
2022/10/02 11:35:59;;;;;;;12.25;2.33;;;16.20;1.00;;;;;;5007181;28;20042;-61
2022/10/02 11:38:49;;;;;;;10.07;2.13;;;16.20;99.90;;;;;;5009645;28;20419;-61
2022/10/02 11:41:30;;;;;;;11.85;2.53;;;16.60;99.90;;;;;;4990725;28;20088;-62
2022/10/02 11:44:04;;;;;;;14.52;2.63;;;16.50;99.90;;;;;;5009835;28;20539;-62
2022/10/02 11:46:39;;;;;;;7.82;2.42;;;16.10;99.90;;;;;;5010236;28;20065;-61
2022/10/02 11:49:52;;;;;;;9.73;1.67;;;16.50;99.90;;;;;;5003277;28;20044;-61
2022/10/02 11:52:36;;;;;;;11.68;2.47;;;16.60;99.90;;;;;;5009612;28;20054;-61
2022/10/02 11:55:08;;;;;;;10.70;2.10;;;16.00;4.30;;;;;;5010146;28;20042;-61
2022/10/02 11:57:48;;;;;;;11.90;2.55;;;16.60;99.90;;;;;;5009224;28;20474;-61
2022/10/02 12:00:40;;;;;;;10.38;2.35;;;16.70;99.90;;;;;;5010050;28;20065;-61
2022/10/02 12:03:18;;;;;;;11.85;2.72;;;16.60;96.30;;;;;;5004040;28;20049;-61
2022/10/02 12:06:20;;;;;;;13.20;2.78;;;16.70;99.90;;;;;;5010010;28;20030;-61
2022/10/02 12:08:54;;;;;;;10.07;2.97;;;16.90;99.90;;;;;;5009554;28;20129;-62
2022/10/02 12:11:45;;;;;;;11.43;2.65;;;16.90;1.00;;;;;;5005933;28;20081;-62
2022/10/02 12:14:45;;;;;;;9.80;2.05;;;16.80;99.90;;;;;;4989222;28;20045;-62
2022/10/02 12:17:11;;;;;;;15.88;3.70;;;;;;;;;;5009269;28;20167;-62
2022/10/02 12:27:02;;;;;;;11.30;2.57;;;17.70;99.90;;;;;;5009924;28;20034;-62
2022/10/02 12:29:43;;;;;;;12.52;3.50;;;18.70;99.90;;;;;;5008355;28;20081;-62
2022/10/02 12:32:38;;;;;;;16.67;3.72;;;18.50;99.90;;;;;;5010406;28;20439;-62
2022/10/02 12:35:22;;;;;;;11.85;2.65;;;18.90;99.90;;;;;;5006496;28;20042;-62
2022/10/02 12:37:57;;;;;;;17.38;3.38;;;18.90;99.90;;;;;;5012021;28;20053;-62
2022/10/02 12:43:33;;;;;;;13.50;2.88;;;18.40;93.60;;;;;;5095319;22;20042;-69
2022/10/02 12:46:12;;;;;;;13.40;2.38;;;18.90;99.90;;;;;;5020782;28;20066;-69
2022/10/02 12:48:44;;;;;;;10.70;2.17;;;21.10;99.90;;;;;;5010582;28;20092;-69
2022/10/02 12:51:18;;;;;;;8.80;2.45;;;22.20;99.90;;;;;;5012438;28;20056;-69
2022/10/02 12:53:56;;;;;;;8.40;2.30;;;23.70;99.90;;;;;;4995206;28;20080;-69
2022/10/02 12:57:03;;;;;;;8.43;2.78;;;24.40;99.90;;;;;;5012333;28;20558;-67
2022/10/02 12:59:48;;;;;;;11.93;2.97;;;25.60;99.90;;;;;;4989341;28;20163;-67
2022/10/02 13:02:52;;;;;;;11.30;2.80;;;25.80;99.90;;;;;;5019359;28;20160;-68
2022/10/02 13:05:24;;;;;;;10.47;2.87;;;26.80;99.90;;;;;;4987141;28;20058;-67
2022/10/02 13:08:09;;;;;;;8.55;2.78;;;27.40;99.90;;;;;;4994391;28;20034;-68
2022/10/02 13:10:42;;;;;;;12.65;2.65;;;26.50;99.90;;;;;;4992393;28;20496;-67
2022/10/02 13:13:14;;;;;;;12.20;2.20;;;26.90;99.90;;;;;;5016947;28;20037;-67
2022/10/02 13:16:20;;;;;;;11.45;2.70;;;27.70;99.90;;;;;;5009991;28;20049;-67
2022/10/02 13:18:58;;;;;;;9.38;2.40;;;27.30;99.90;;;;;;4908443;29;20047;-67
2022/10/02 13:21:37;;;;;;;11.20;2.70;;;28.40;99.90;;;;;;4911296;29;20051;-67
2022/10/02 13:24:30;;;;;;;11.32;2.65;;;28.60;99.90;;;;;;4971475;28;20108;-67
2022/10/02 13:27:17;;;;;;;9.25;2.95;;;28.90;99.90;;;;;;5013531;28;20037;-67
2022/10/02 13:30:15;;;;;;;12.15;2.47;;;27.20;99.90;;;;;;5010708;28;20030;-67
2022/10/02 13:33:07;;;;;;;10.07;2.35;;;24.60;99.90;;;;;;4989862;28;20495;-67
2022/10/02 13:35:56;;;;;;;10.05;2.53;;;23.50;99.90;;;;;;5007074;28;20412;-67
2022/10/02 13:38:38;;;;;;;6.05;1.83;;;25.20;99.90;;;;;;5000158;28;20538;-67
2022/10/02 13:41:26;;;;;;;5.75;1.70;;;26.10;99.90;;;;;;4993146;28;20326;-67
2022/10/02 13:44:18;;;;;;;7.43;2.20;;;27.20;99.90;;;;;;5006966;28;20038;-67
2022/10/02 13:47:10;;;;;;;9.63;2.30;;;27.60;99.90;;;;;;5011236;28;20045;-68
2022/10/02 13:49:52;;;;;;;9.43;2.90;;;28.30;99.90;;;;;;4989346;28;20046;-68
2022/10/02 13:52:36;;;;;;;9.90;2.47;;;28.70;99.90;;;;;;5010352;28;20057;-67
2022/10/02 13:55:14;;;;;;;8.82;2.55;;;;;;;;;;5009816;28;20037;-67
2022/10/02 13:57:49;;;;;;;9.45;2.13;;;29.40;99.90;;;;;;5013381;28;20046;-68
2022/10/02 14:00:22;;;;;;;8.18;2.20;;;28.90;99.90;;;;;;4999585;28;20077;-68
2022/10/02 14:03:10;;;;;;;8.17;2.47;;;29.30;99.90;;;;;;5010849;28;20440;-68
2022/10/02 14:05:48;;;;;;;9.23;2.40;;;29.60;99.90;;;;;;5009899;28;20038;-68
2022/10/02 14:08:44;;;;;;;10.30;3.00;;;30.20;99.90;;;;;;5012173;28;20034;-68
2022/10/02 14:11:35;;;;;;;10.68;2.50;;;;;;;;;;4997569;28;20045;-68
2022/10/02 14:14:19;;;;;;;12.43;2.67;;;30.20;99.90;;;;;;5009027;28;20042;-68
2022/10/02 14:17:37;;;;;;;8.30;2.33;;;29.50;99.90;;;;;;5011785;28;20034;-68
2022/10/02 14:20:37;;;;;;;11.27;2.15;;;28.50;99.90;;;;;;4970807;28;20496;-68
2022/10/02 14:23:29;;;;;;;16.05;8.20;;;28.00;99.90;;;;;;4996726;28;20037;-68
2022/10/02 14:26:23;;;;;;;11.45;5.32;;;28.00;99.90;;;;;;5005350;28;20200;-68